createdAt,value
2017-03-13T00:00:03.445Z,0
2017-03-13T00:01:03.974Z,0
2017-03-13T00:02:04.022Z,0
2017-03-13T00:03:03.634Z,0
2017-03-13T00:04:03.263Z,0
2017-03-13T00:05:03.943Z,0
2017-03-13T00:06:03.338Z,0
2017-03-13T00:07:04.165Z,0
2017-03-13T00:08:03.374Z,0
2017-03-13T00:09:04.212Z,0
2017-03-13T00:10:04.457Z,0
2017-03-13T00:11:04.227Z,0
2017-03-13T00:12:03.855Z,0
2017-03-13T00:13:04.301Z,0
2017-03-13T00:14:04.325Z,0
2017-03-13T00:15:04.598Z,0
2017-03-13T00:16:03.985Z,0
2017-03-13T00:17:03.625Z,0
2017-03-13T00:18:04.044Z,0
2017-03-13T00:19:04.074Z,0
2017-03-13T00:20:04.746Z,0
2017-03-13T00:21:04.511Z,0
2017-03-13T00:22:04.569Z,0
2017-03-13T00:23:04.565Z,0
2017-03-13T00:24:04.601Z,0
2017-03-13T00:25:04.250Z,0
2017-03-13T00:26:04.667Z,0
2017-03-13T00:27:04.303Z,0
2017-03-13T00:28:04.723Z,0
2017-03-13T00:29:04.754Z,0
2017-03-13T00:30:04.393Z,0
2017-03-13T00:31:04.710Z,0
2017-03-13T00:32:04.832Z,0
2017-03-13T00:33:04.864Z,0
2017-03-13T00:34:04.929Z,0
2017-03-13T00:35:04.906Z,0
2017-03-13T00:36:04.783Z,0
2017-03-13T00:37:04.967Z,0
2017-03-13T00:38:04.998Z,0
2017-03-13T00:39:05.077Z,0
2017-03-13T00:40:05.058Z,0
2017-03-13T00:41:05.334Z,0
2017-03-13T00:42:05.103Z,0
2017-03-13T00:43:04.331Z,0
2017-03-13T00:44:04.772Z,0
2017-03-13T00:45:05.185Z,0
2017-03-13T00:46:05.056Z,0
2017-03-13T00:47:05.242Z,0
2017-03-13T00:48:04.903Z,0
2017-03-13T00:49:05.311Z,0
2017-03-13T00:50:05.325Z,0
2017-03-13T00:51:05.620Z,0
2017-03-13T00:52:04.590Z,0
2017-03-13T00:53:04.997Z,0
2017-03-13T00:54:05.032Z,0
2017-03-13T00:55:04.673Z,0
2017-03-13T00:56:05.739Z,0
2017-03-13T00:57:05.139Z,0
2017-03-13T00:58:05.559Z,0
2017-03-13T00:59:05.179Z,0
2017-03-13T01:00:05.615Z,0
2017-03-13T01:01:05.483Z,0
2017-03-13T01:02:05.664Z,0
2017-03-13T01:03:04.895Z,0
2017-03-13T01:04:05.726Z,0
2017-03-13T01:05:05.782Z,0
2017-03-13T01:06:05.628Z,0
2017-03-13T01:07:05.819Z,0
2017-03-13T01:08:05.419Z,0
2017-03-13T01:09:04.668Z,0
2017-03-13T01:10:05.489Z,0
2017-03-13T01:11:06.186Z,0
2017-03-13T01:12:05.540Z,0
2017-03-13T01:13:05.969Z,0
2017-03-13T01:14:05.985Z,0
2017-03-13T01:15:06.011Z,0
2017-03-13T01:16:06.304Z,0
2017-03-13T01:17:06.100Z,0
2017-03-13T01:18:05.701Z,0
2017-03-13T01:19:05.388Z,0
2017-03-13T01:20:05.759Z,0
2017-03-13T01:21:06.048Z,0
2017-03-13T01:22:05.813Z,0
2017-03-13T01:23:05.870Z,0
2017-03-13T01:24:06.309Z,0
2017-03-13T01:25:05.941Z,0
2017-03-13T01:26:06.577Z,0
2017-03-13T01:27:06.345Z,0
2017-03-13T01:28:06.386Z,0
2017-03-13T01:29:06.417Z,0
2017-03-13T01:30:06.044Z,0
2017-03-13T01:31:06.711Z,0
2017-03-13T01:32:06.485Z,0
2017-03-13T01:33:06.505Z,0
2017-03-13T01:34:06.154Z,0
2017-03-13T01:35:06.171Z,0
2017-03-13T01:36:06.072Z,0
2017-03-13T01:37:06.621Z,0
2017-03-13T01:38:06.664Z,0
2017-03-13T01:39:06.677Z,0
2017-03-13T01:40:05.942Z,0
2017-03-13T01:41:06.996Z,0
2017-03-13T01:42:06.927Z,0
2017-03-13T01:43:06.793Z,0
2017-03-13T01:44:06.809Z,0
2017-03-13T01:45:06.499Z,0
2017-03-13T01:46:07.122Z,0
2017-03-13T01:47:06.524Z,0
2017-03-13T01:48:06.547Z,0
2017-03-13T01:49:06.961Z,0
2017-03-13T01:50:06.599Z,0
2017-03-13T01:51:07.251Z,0
2017-03-13T01:52:07.043Z,0
2017-03-13T01:53:07.064Z,0
2017-03-13T01:54:07.101Z,0
2017-03-13T01:55:06.714Z,0
2017-03-13T01:56:07.409Z,0
2017-03-13T01:57:07.180Z,0
2017-03-13T01:58:06.016Z,0
2017-03-13T01:59:06.049Z,0
2017-03-13T02:00:06.473Z,0
2017-03-13T02:01:06.502Z,0
2017-03-13T02:02:06.917Z,0
2017-03-13T02:03:06.564Z,0
2017-03-13T02:04:07.377Z,0
2017-03-13T02:05:07.406Z,0
2017-03-13T02:06:07.409Z,0
2017-03-13T02:07:07.076Z,0
2017-03-13T02:08:07.484Z,0
2017-03-13T02:09:07.139Z,0
2017-03-13T02:10:07.129Z,0
2017-03-13T02:11:07.166Z,0
2017-03-13T02:12:07.034Z,0
2017-03-13T02:13:07.224Z,0
2017-03-13T02:14:07.645Z,0
2017-03-13T02:15:07.672Z,0
2017-03-13T02:16:07.702Z,0
2017-03-13T02:17:07.990Z,0
2017-03-13T02:18:07.767Z,0
2017-03-13T02:19:07.787Z,0
2017-03-13T02:20:07.409Z,0
2017-03-13T02:21:07.842Z,0
2017-03-13T02:22:07.726Z,0
2017-03-13T02:23:07.899Z,0
2017-03-13T02:24:07.915Z,0
2017-03-13T02:25:07.537Z,0
2017-03-13T02:26:07.995Z,0
2017-03-13T02:27:08.262Z,0
2017-03-13T02:28:08.044Z,0
2017-03-13T02:29:08.056Z,0
2017-03-13T02:30:08.066Z,0
2017-03-13T02:31:08.133Z,0
2017-03-13T02:32:08.393Z,0
2017-03-13T02:33:08.174Z,0
2017-03-13T02:34:07.796Z,0
2017-03-13T02:35:07.819Z,0
2017-03-13T02:36:07.889Z,0
2017-03-13T02:37:08.153Z,0
2017-03-13T02:38:07.927Z,0
2017-03-13T02:39:08.337Z,0
2017-03-13T02:40:08.360Z,0
2017-03-13T02:41:08.376Z,0
2017-03-13T02:42:08.663Z,0
2017-03-13T02:43:07.638Z,0
2017-03-13T02:44:08.462Z,0
2017-03-13T02:45:08.087Z,0
2017-03-13T02:46:08.527Z,0
2017-03-13T02:47:08.394Z,0
2017-03-13T02:48:08.578Z,0
2017-03-13T02:49:07.419Z,0
2017-03-13T02:50:08.243Z,0
2017-03-13T02:51:08.666Z,0
2017-03-13T02:52:08.921Z,0
2017-03-13T02:53:08.329Z,0
2017-03-13T02:54:08.346Z,0
2017-03-13T02:55:08.794Z,0
2017-03-13T02:56:07.999Z,0
2017-03-13T02:57:07.904Z,0
2017-03-13T02:58:08.844Z,0
2017-03-13T02:59:08.862Z,0
2017-03-13T03:00:08.117Z,0
2017-03-13T03:01:08.922Z,0
2017-03-13T03:02:09.204Z,0
2017-03-13T03:03:08.989Z,0
2017-03-13T03:04:09.014Z,0
2017-03-13T03:05:08.640Z,0
2017-03-13T03:06:09.088Z,0
2017-03-13T03:07:08.932Z,0
2017-03-13T03:08:08.320Z,0
2017-03-13T03:09:08.361Z,0
2017-03-13T03:10:08.398Z,0
2017-03-13T03:11:08.815Z,0
2017-03-13T03:12:08.728Z,0
2017-03-13T03:13:09.248Z,0
2017-03-13T03:14:09.283Z,0
2017-03-13T03:15:08.939Z,0
2017-03-13T03:16:09.354Z,0
2017-03-13T03:17:09.219Z,0
2017-03-13T03:18:08.996Z,0
2017-03-13T03:19:09.026Z,0
2017-03-13T03:20:09.459Z,0
2017-03-13T03:21:09.087Z,0
2017-03-13T03:22:09.775Z,0
2017-03-13T03:23:09.528Z,0
2017-03-13T03:24:09.564Z,0
2017-03-13T03:25:09.186Z,0
2017-03-13T03:26:09.610Z,0
2017-03-13T03:27:09.499Z,0
2017-03-13T03:28:09.692Z,0
2017-03-13T03:29:09.291Z,0
2017-03-13T03:30:09.332Z,0
2017-03-13T03:31:09.750Z,0
2017-03-13T03:32:10.018Z,0
2017-03-13T03:33:09.827Z,0
2017-03-13T03:34:09.035Z,0
2017-03-13T03:35:09.881Z,0
2017-03-13T03:36:09.885Z,0
2017-03-13T03:37:10.152Z,0
2017-03-13T03:38:09.535Z,0
2017-03-13T03:39:09.953Z,0
2017-03-13T03:40:09.612Z,0
2017-03-13T03:41:10.025Z,0
2017-03-13T03:42:09.646Z,0
2017-03-13T03:43:10.067Z,0
2017-03-13T03:44:10.108Z,0
2017-03-13T03:45:10.147Z,0
2017-03-13T03:46:10.157Z,0
2017-03-13T03:47:09.382Z,0
2017-03-13T03:48:09.806Z,0
2017-03-13T03:49:10.275Z,0
2017-03-13T03:50:10.277Z,0
2017-03-13T03:51:10.281Z,0
2017-03-13T03:52:09.920Z,0
2017-03-13T03:53:10.354Z,0
2017-03-13T03:54:10.362Z,0
2017-03-13T03:55:10.395Z,0
2017-03-13T03:56:10.423Z,0
2017-03-13T03:57:10.465Z,0
2017-03-13T03:58:09.687Z,0
2017-03-13T03:59:10.119Z,0
2017-03-13T04:00:09.746Z,0
2017-03-13T04:01:10.543Z,0
2017-03-13T04:02:10.200Z,0
2017-03-13T04:03:10.865Z,0
2017-03-13T04:04:10.245Z,0
2017-03-13T04:05:10.291Z,0
2017-03-13T04:06:10.323Z,0
2017-03-13T04:07:10.333Z,0
2017-03-13T04:08:10.609Z,0
2017-03-13T04:09:10.778Z,0
2017-03-13T04:10:10.407Z,0
2017-03-13T04:11:10.844Z,0
2017-03-13T04:12:10.476Z,0
2017-03-13T04:13:10.741Z,0
2017-03-13T04:14:10.134Z,0
2017-03-13T04:15:10.538Z,0
2017-03-13T04:16:10.583Z,0
2017-03-13T04:17:11.000Z,0
2017-03-13T04:18:10.889Z,0
2017-03-13T04:19:10.250Z,0
2017-03-13T04:20:10.701Z,0
2017-03-13T04:21:11.087Z,0
2017-03-13T04:22:10.733Z,0
2017-03-13T04:23:11.031Z,0
2017-03-13T04:24:11.173Z,0
2017-03-13T04:25:11.210Z,0
2017-03-13T04:26:11.242Z,0
2017-03-13T04:27:11.291Z,0
2017-03-13T04:28:11.139Z,0
2017-03-13T04:29:11.357Z,0
2017-03-13T04:30:10.172Z,0
2017-03-13T04:31:10.583Z,0
2017-03-13T04:32:11.399Z,0
2017-03-13T04:33:11.293Z,0
2017-03-13T04:34:11.065Z,0
2017-03-13T04:35:11.104Z,0
2017-03-13T04:36:11.490Z,0
2017-03-13T04:37:10.723Z,0
2017-03-13T04:38:11.434Z,0
2017-03-13T04:39:11.201Z,0
2017-03-13T04:40:11.217Z,0
2017-03-13T04:41:11.234Z,0
2017-03-13T04:42:11.698Z,0
2017-03-13T04:43:11.556Z,0
2017-03-13T04:44:11.334Z,0
2017-03-13T04:45:11.357Z,0
2017-03-13T04:46:11.774Z,0
2017-03-13T04:47:11.015Z,0
2017-03-13T04:48:12.091Z,0
2017-03-13T04:49:11.850Z,0
2017-03-13T04:50:11.508Z,0
2017-03-13T04:51:11.521Z,0
2017-03-13T04:52:11.570Z,0
2017-03-13T04:53:11.819Z,0
2017-03-13T04:54:11.592Z,0
2017-03-13T04:55:11.620Z,0
2017-03-13T04:56:12.050Z,0
2017-03-13T04:57:11.686Z,0
2017-03-13T04:58:12.378Z,0
2017-03-13T04:59:12.135Z,0
2017-03-13T05:00:12.186Z,0
2017-03-13T05:01:11.788Z,0
2017-03-13T05:02:11.807Z,0
2017-03-13T05:03:12.082Z,0
2017-03-13T05:04:11.871Z,0
2017-03-13T05:05:11.896Z,0
2017-03-13T05:06:11.528Z,0
2017-03-13T05:07:12.355Z,0
2017-03-13T05:08:11.866Z,0
2017-03-13T05:09:11.599Z,0
2017-03-13T05:10:12.045Z,0
2017-03-13T05:11:12.450Z,0
2017-03-13T05:12:12.477Z,0
2017-03-13T05:13:12.764Z,0
2017-03-13T05:14:12.142Z,0
2017-03-13T05:15:12.563Z,0
2017-03-13T05:16:12.577Z,0
2017-03-13T05:17:12.229Z,0
2017-03-13T05:18:12.514Z,0
2017-03-13T05:19:12.282Z,0
2017-03-13T05:20:12.681Z,0
2017-03-13T05:21:12.328Z,0
2017-03-13T05:22:12.763Z,0
2017-03-13T05:23:12.240Z,0
2017-03-13T05:24:12.806Z,0
2017-03-13T05:25:12.430Z,0
2017-03-13T05:26:12.506Z,0
2017-03-13T05:27:12.485Z,0
2017-03-13T05:28:12.377Z,0
2017-03-13T05:29:12.542Z,4
2017-03-13T05:30:12.562Z,4
2017-03-13T05:31:12.602Z,0
2017-03-13T05:32:13.027Z,4
2017-03-13T05:33:13.311Z,4
2017-03-13T05:34:12.680Z,4
2017-03-13T05:35:12.727Z,8
2017-03-13T05:36:12.737Z,4
2017-03-13T05:37:13.147Z,8
2017-03-13T05:38:12.788Z,8
2017-03-13T05:39:12.798Z,8
2017-03-13T05:40:13.249Z,16
2017-03-13T05:41:12.478Z,16
2017-03-13T05:42:13.272Z,16
2017-03-13T05:43:12.916Z,20
2017-03-13T05:44:13.361Z,24
2017-03-13T05:45:13.369Z,24
2017-03-13T05:46:13.406Z,32
2017-03-13T05:47:13.007Z,32
2017-03-13T05:48:13.454Z,36
2017-03-13T05:49:12.676Z,44
2017-03-13T05:50:13.118Z,48
2017-03-13T05:51:13.154Z,56
2017-03-13T05:52:13.566Z,60
2017-03-13T05:53:13.580Z,64
2017-03-13T05:54:13.201Z,72
2017-03-13T05:55:13.646Z,80
2017-03-13T05:56:13.650Z,88
2017-03-13T05:57:13.710Z,96
2017-03-13T05:58:13.715Z,104
2017-03-13T05:59:13.348Z,108
2017-03-13T06:00:13.364Z,120
2017-03-13T06:01:13.398Z,128
2017-03-13T06:02:13.439Z,140
2017-03-13T06:03:13.063Z,148
2017-03-13T06:04:13.343Z,160
2017-03-13T06:05:12.729Z,168
2017-03-13T06:06:13.145Z,180
2017-03-13T06:07:13.166Z,184
2017-03-13T06:08:13.987Z,196
2017-03-13T06:09:14.275Z,204
2017-03-13T06:10:14.044Z,216
2017-03-13T06:11:14.073Z,224
2017-03-13T06:12:13.695Z,232
2017-03-13T06:13:13.721Z,244
2017-03-13T06:14:14.015Z,248
2017-03-13T06:15:13.779Z,260
2017-03-13T06:16:13.425Z,268
2017-03-13T06:17:13.438Z,280
2017-03-13T06:18:14.262Z,292
2017-03-13T06:19:14.131Z,300
2017-03-13T06:20:13.959Z,308
2017-03-13T06:21:14.357Z,320
2017-03-13T06:22:14.365Z,328
2017-03-13T06:23:14.409Z,340
2017-03-13T06:24:14.671Z,344
2017-03-13T06:25:14.063Z,356
2017-03-13T06:26:14.463Z,368
2017-03-13T06:27:14.517Z,376
2017-03-13T06:28:14.538Z,388
2017-03-13T06:29:14.418Z,392
2017-03-13T06:30:14.582Z,404
2017-03-13T06:31:13.820Z,416
2017-03-13T06:32:13.834Z,420
2017-03-13T06:33:14.665Z,432
2017-03-13T06:34:14.549Z,440
2017-03-13T06:35:14.711Z,448
2017-03-13T06:36:14.343Z,456
2017-03-13T06:37:14.768Z,468
2017-03-13T06:38:14.421Z,476
2017-03-13T06:39:15.074Z,484
2017-03-13T06:40:14.458Z,492
2017-03-13T06:41:14.508Z,500
2017-03-13T06:42:14.501Z,508
2017-03-13T06:43:14.932Z,520
2017-03-13T06:44:14.418Z,524
2017-03-13T06:45:14.998Z,508
2017-03-13T06:46:14.616Z,544
2017-03-13T06:47:15.043Z,548
2017-03-13T06:48:15.077Z,556
2017-03-13T06:49:14.952Z,572
2017-03-13T06:50:15.126Z,584
2017-03-13T06:51:15.155Z,592
2017-03-13T06:52:15.176Z,604
2017-03-13T06:53:15.201Z,612
2017-03-13T06:54:15.513Z,620
2017-03-13T06:55:15.254Z,628
2017-03-13T06:56:14.899Z,640
2017-03-13T06:57:14.912Z,652
2017-03-13T06:58:14.941Z,664
2017-03-13T06:59:14.820Z,672
2017-03-13T07:00:14.598Z,680
2017-03-13T07:01:15.035Z,692
2017-03-13T07:02:15.499Z,704
2017-03-13T07:03:15.092Z,712
2017-03-13T07:04:14.965Z,724
2017-03-13T07:05:15.546Z,736
2017-03-13T07:06:15.206Z,752
2017-03-13T07:07:15.672Z,772
2017-03-13T07:08:15.244Z,800
2017-03-13T07:09:14.841Z,832
2017-03-13T07:10:15.273Z,876
2017-03-13T07:11:15.297Z,956
2017-03-13T07:12:14.932Z,1400
2017-03-13T07:13:15.200Z,2316
2017-03-13T07:14:15.776Z,2968
2017-03-13T07:15:15.426Z,3188
2017-03-13T07:16:15.834Z,3352
2017-03-13T07:17:15.846Z,3416
2017-03-13T07:18:15.909Z,3560
2017-03-13T07:19:15.929Z,3788
2017-03-13T07:20:15.181Z,3888
2017-03-13T07:21:15.590Z,4020
2017-03-13T07:22:15.615Z,4220
2017-03-13T07:23:15.234Z,4292
2017-03-13T07:24:15.265Z,4340
2017-03-13T07:25:15.945Z,4340
2017-03-13T07:26:16.342Z,4392
2017-03-13T07:27:15.754Z,4432
2017-03-13T07:28:18.714Z,4444
2017-03-13T07:29:15.808Z,4496
2017-03-13T07:30:16.491Z,4492
2017-03-13T07:31:16.276Z,4260
2017-03-13T07:32:16.290Z,3868
2017-03-13T07:33:15.966Z,3564
2017-03-13T07:34:16.367Z,3432
2017-03-13T07:35:16.232Z,3340
2017-03-13T07:36:16.392Z,3240
2017-03-13T07:37:15.250Z,3176
2017-03-13T07:38:16.071Z,3108
2017-03-13T07:39:16.492Z,3028
2017-03-13T07:40:16.767Z,2964
2017-03-13T07:41:16.552Z,2872
2017-03-13T07:42:16.586Z,2736
2017-03-13T07:43:16.613Z,2564
2017-03-13T07:44:16.252Z,2412
2017-03-13T07:45:16.908Z,2244
2017-03-13T07:46:16.289Z,2168
2017-03-13T07:47:16.725Z,2100
2017-03-13T07:48:16.743Z,2020
2017-03-13T07:49:15.976Z,1956
2017-03-13T07:50:16.664Z,1916
2017-03-13T07:51:16.828Z,1896
2017-03-13T07:52:16.078Z,1868
2017-03-13T07:53:16.890Z,1852
2017-03-13T07:54:16.910Z,1844
2017-03-13T07:55:16.438Z,1824
2017-03-13T07:56:16.967Z,1792
2017-03-13T07:57:16.589Z,1756
2017-03-13T07:58:16.238Z,1716
2017-03-13T07:59:17.070Z,1676
2017-03-13T08:00:16.943Z,1644
2017-03-13T08:01:16.712Z,1620
2017-03-13T08:02:17.153Z,1600
2017-03-13T08:03:16.782Z,1568
2017-03-13T08:04:16.789Z,1540
2017-03-13T08:05:17.487Z,1508
2017-03-13T08:06:17.267Z,1480
2017-03-13T08:07:17.281Z,1460
2017-03-13T08:08:17.329Z,1432
2017-03-13T08:09:17.362Z,1416
2017-03-13T08:10:17.622Z,1408
2017-03-13T08:11:17.419Z,1368
2017-03-13T08:12:17.424Z,1372
2017-03-13T08:13:17.469Z,1376
2017-03-13T08:14:16.722Z,1356
2017-03-13T08:15:17.779Z,1332
2017-03-13T08:16:17.539Z,1308
2017-03-13T08:17:17.193Z,1304
2017-03-13T08:18:17.607Z,1304
2017-03-13T08:19:17.635Z,1332
2017-03-13T08:20:17.902Z,1332
2017-03-13T08:21:17.709Z,1320
2017-03-13T08:22:17.315Z,1368
2017-03-13T08:23:17.740Z,1368
2017-03-13T08:24:17.409Z,1372
2017-03-13T08:25:17.665Z,1372
2017-03-13T08:26:17.067Z,1368
2017-03-13T08:27:17.464Z,1344
2017-03-13T08:28:16.701Z,1372
2017-03-13T08:29:17.516Z,1380
2017-03-13T08:30:18.214Z,1396
2017-03-13T08:31:17.982Z,1404
2017-03-13T08:32:17.615Z,1404
2017-03-13T08:33:17.628Z,1412
2017-03-13T08:34:17.254Z,1440
2017-03-13T08:35:17.562Z,1452
2017-03-13T08:36:17.706Z,1472
2017-03-13T08:37:17.743Z,1488
2017-03-13T08:38:17.772Z,1528
2017-03-13T08:39:17.412Z,1588
2017-03-13T08:40:18.469Z,1704
2017-03-13T08:41:18.262Z,1836
2017-03-13T08:42:18.275Z,1940
2017-03-13T08:43:18.300Z,2008
2017-03-13T08:44:17.560Z,2272
2017-03-13T08:45:18.605Z,2296
2017-03-13T08:46:17.582Z,2360
2017-03-13T08:47:17.613Z,2404
2017-03-13T08:48:18.447Z,2516
2017-03-13T08:49:18.072Z,2632
2017-03-13T08:50:17.701Z,2484
2017-03-13T08:51:18.121Z,2860
2017-03-13T08:52:18.178Z,2916
2017-03-13T08:53:18.571Z,2968
2017-03-13T08:54:18.240Z,3056
2017-03-13T08:55:18.624Z,3152
2017-03-13T08:56:18.297Z,3232
2017-03-13T08:57:18.302Z,3284
2017-03-13T08:58:18.735Z,3220
2017-03-13T08:59:17.976Z,3356
2017-03-13T09:00:18.785Z,3332
2017-03-13T09:01:18.825Z,3276
2017-03-13T09:02:18.445Z,3236
2017-03-13T09:03:18.079Z,3132
2017-03-13T09:04:18.543Z,3052
2017-03-13T09:05:18.525Z,2992
2017-03-13T09:06:18.941Z,2924
2017-03-13T09:07:18.175Z,2760
2017-03-13T09:08:18.622Z,2764
2017-03-13T09:09:19.053Z,2656
2017-03-13T09:10:19.080Z,2516
2017-03-13T09:11:19.109Z,2392
2017-03-13T09:12:19.125Z,2360
2017-03-13T09:13:18.374Z,2280
2017-03-13T09:14:19.208Z,2288
2017-03-13T09:15:18.408Z,2304
2017-03-13T09:16:19.504Z,2284
2017-03-13T09:17:19.263Z,2300
2017-03-13T09:18:18.886Z,2300
2017-03-13T09:19:18.942Z,2312
2017-03-13T09:20:18.547Z,2336
2017-03-13T09:21:19.627Z,2324
2017-03-13T09:22:18.609Z,2312
2017-03-13T09:23:18.243Z,2336
2017-03-13T09:24:19.067Z,2344
2017-03-13T09:25:19.107Z,2356
2017-03-13T09:26:18.980Z,2364
2017-03-13T09:27:19.553Z,2356
2017-03-13T09:28:19.593Z,2408
2017-03-13T09:29:18.418Z,2436
2017-03-13T09:30:19.251Z,2456
2017-03-13T09:31:19.512Z,2464
2017-03-13T09:32:18.900Z,2448
2017-03-13T09:33:19.338Z,2428
2017-03-13T09:34:19.382Z,2400
2017-03-13T09:35:19.378Z,2372
2017-03-13T09:36:19.271Z,2320
2017-03-13T09:37:19.028Z,2316
2017-03-13T09:38:18.684Z,2284
2017-03-13T09:39:19.098Z,2284
2017-03-13T09:40:19.521Z,2276
2017-03-13T09:41:19.811Z,2252
2017-03-13T09:42:19.572Z,2252
2017-03-13T09:43:19.224Z,2220
2017-03-13T09:44:19.641Z,2228
2017-03-13T09:45:20.066Z,2208
2017-03-13T09:46:20.350Z,2192
2017-03-13T09:47:18.923Z,2180
2017-03-13T09:48:19.392Z,2192
2017-03-13T09:49:19.369Z,2184
2017-03-13T09:50:19.809Z,2176
2017-03-13T09:51:20.473Z,2168
2017-03-13T09:52:19.867Z,2168
2017-03-13T09:53:20.314Z,2140
2017-03-13T09:54:19.913Z,2144
2017-03-13T09:55:19.961Z,2188
2017-03-13T09:56:20.650Z,2228
2017-03-13T09:57:19.622Z,2268
2017-03-13T09:58:20.063Z,2212
2017-03-13T09:59:20.476Z,2212
2017-03-13T10:00:20.483Z,2256
2017-03-13T10:01:19.730Z,2064
2017-03-13T10:02:20.156Z,2176
2017-03-13T10:03:20.176Z,2400
2017-03-13T10:04:20.208Z,2476
2017-03-13T10:05:20.637Z,2508
2017-03-13T10:06:20.677Z,2528
2017-03-13T10:07:20.686Z,2556
2017-03-13T10:08:20.331Z,2560
2017-03-13T10:09:19.959Z,2568
2017-03-13T10:10:20.772Z,2560
2017-03-13T10:11:20.398Z,2552
2017-03-13T10:12:20.302Z,2588
2017-03-13T10:13:20.475Z,2620
2017-03-13T10:14:20.080Z,2632
2017-03-13T10:15:20.513Z,2660
2017-03-13T10:16:20.953Z,2668
2017-03-13T10:17:21.221Z,2708
2017-03-13T10:18:21.023Z,2692
2017-03-13T10:19:20.225Z,2688
2017-03-13T10:20:20.288Z,2644
2017-03-13T10:21:21.089Z,2744
2017-03-13T10:22:21.365Z,2792
2017-03-13T10:23:20.745Z,2856
2017-03-13T10:24:20.799Z,2904
2017-03-13T10:25:20.805Z,2968
2017-03-13T10:26:21.221Z,2792
2017-03-13T10:27:20.702Z,2712
2017-03-13T10:28:21.289Z,2836
2017-03-13T10:29:20.939Z,2936
2017-03-13T10:30:20.940Z,3068
2017-03-13T10:31:21.385Z,3060
2017-03-13T10:32:21.241Z,2936
2017-03-13T10:33:21.026Z,2880
2017-03-13T10:34:21.060Z,2900
2017-03-13T10:35:21.078Z,2992
2017-03-13T10:36:20.724Z,3084
2017-03-13T10:37:21.801Z,3088
2017-03-13T10:38:21.578Z,3028
2017-03-13T10:39:20.794Z,2952
2017-03-13T10:40:21.231Z,2988
2017-03-13T10:41:20.860Z,3008
2017-03-13T10:42:21.135Z,3056
2017-03-13T10:43:21.716Z,3008
2017-03-13T10:44:21.729Z,3088
2017-03-13T10:45:21.375Z,3120
2017-03-13T10:46:21.783Z,3248
2017-03-13T10:47:22.085Z,3308
2017-03-13T10:48:21.877Z,3256
2017-03-13T10:49:21.895Z,3244
2017-03-13T10:50:21.520Z,3228
2017-03-13T10:51:21.135Z,3332
2017-03-13T10:52:21.812Z,3444
2017-03-13T10:53:21.209Z,3576
2017-03-13T10:54:21.657Z,3560
2017-03-13T10:55:20.874Z,3624
2017-03-13T10:56:21.717Z,3680
2017-03-13T10:57:22.359Z,3792
2017-03-13T10:58:22.172Z,3992
2017-03-13T10:59:22.193Z,4000
2017-03-13T11:00:21.802Z,4172
2017-03-13T11:01:22.222Z,4296
2017-03-13T11:02:22.543Z,4448
2017-03-13T11:03:21.889Z,4580
2017-03-13T11:04:22.361Z,4664
2017-03-13T11:05:21.942Z,4680
2017-03-13T11:06:22.370Z,4600
2017-03-13T11:07:22.667Z,4612
2017-03-13T11:08:22.028Z,4708
2017-03-13T11:09:22.469Z,4676
2017-03-13T11:10:22.473Z,4620
2017-03-13T11:11:22.506Z,4492
2017-03-13T11:12:22.798Z,4304
2017-03-13T11:13:22.567Z,4276
2017-03-13T11:14:22.200Z,4252
2017-03-13T11:15:22.257Z,4244
2017-03-13T11:16:22.259Z,4440
2017-03-13T11:17:22.941Z,4560
2017-03-13T11:18:22.324Z,4664
2017-03-13T11:19:22.745Z,4920
2017-03-13T11:20:22.781Z,5100
2017-03-13T11:21:22.796Z,5328
2017-03-13T11:22:22.832Z,5244
2017-03-13T11:23:22.875Z,5260
2017-03-13T11:24:22.899Z,5488
2017-03-13T11:25:22.920Z,5960
2017-03-13T11:26:22.962Z,5596
2017-03-13T11:27:23.010Z,6348
2017-03-13T11:28:22.622Z,6648
2017-03-13T11:29:22.678Z,6600
2017-03-13T11:30:22.649Z,6660
2017-03-13T11:31:22.725Z,6676
2017-03-13T11:32:23.125Z,6464
2017-03-13T11:33:23.155Z,6500
2017-03-13T11:34:22.795Z,6464
2017-03-13T11:35:23.208Z,6396
2017-03-13T11:36:22.850Z,6092
2017-03-13T11:37:22.887Z,6188
2017-03-13T11:38:23.313Z,6664
2017-03-13T11:39:23.339Z,7312
2017-03-13T11:40:23.368Z,7508
2017-03-13T11:41:22.989Z,7488
2017-03-13T11:42:22.622Z,7568
2017-03-13T11:43:23.055Z,7676
2017-03-13T11:44:23.079Z,7564
2017-03-13T11:45:22.724Z,7516
2017-03-13T11:46:23.131Z,7140
2017-03-13T11:47:23.177Z,7788
2017-03-13T11:48:23.187Z,7752
2017-03-13T11:49:23.218Z,7192
2017-03-13T11:50:23.644Z,6020
2017-03-13T11:51:23.295Z,5996
2017-03-13T11:52:23.761Z,6196
2017-03-13T11:53:23.742Z,6320
2017-03-13T11:54:23.372Z,6612
2017-03-13T11:55:23.415Z,6664
2017-03-13T11:56:23.833Z,6452
2017-03-13T11:57:23.861Z,6016
2017-03-13T11:58:23.885Z,6292
2017-03-13T11:59:23.909Z,6980
2017-03-13T12:00:23.959Z,7236
2017-03-13T12:01:24.002Z,7520
2017-03-13T12:02:24.015Z,7984
2017-03-13T12:03:24.040Z,9096
2017-03-13T12:04:24.105Z,9256
2017-03-13T12:05:23.289Z,8656
2017-03-13T12:06:23.732Z,10036
2017-03-13T12:07:23.756Z,12340
2017-03-13T12:08:23.785Z,14784
2017-03-13T12:09:24.202Z,16084
2017-03-13T12:10:24.227Z,18044
2017-03-13T12:11:24.292Z,16724
2017-03-13T12:12:23.912Z,11796
2017-03-13T12:13:24.337Z,16880
2017-03-13T12:14:24.361Z,19776
2017-03-13T12:15:24.394Z,34880
2017-03-13T12:16:24.411Z,50496
2017-03-13T12:17:24.447Z,49632
2017-03-13T12:18:24.069Z,44160
2017-03-13T12:19:23.721Z,45056
2017-03-13T12:20:24.162Z,38240
2017-03-13T12:21:24.572Z,40064
2017-03-13T12:22:24.611Z,43136
2017-03-13T12:23:24.624Z,33504
2017-03-13T12:24:24.672Z,29344
2017-03-13T12:25:24.324Z,27328
2017-03-13T12:26:23.922Z,43104
2017-03-13T12:27:24.376Z,39456
2017-03-13T12:28:24.233Z,36864
2017-03-13T12:29:24.838Z,41760
2017-03-13T12:30:24.055Z,47264
2017-03-13T12:31:24.491Z,53184
2017-03-13T12:32:24.898Z,51968
2017-03-13T12:33:24.800Z,55232
2017-03-13T12:34:24.973Z,41280
2017-03-13T12:35:24.609Z,32832
2017-03-13T12:36:23.848Z,37312
2017-03-13T12:37:25.063Z,44800
2017-03-13T12:38:24.948Z,49408
2017-03-13T12:39:24.752Z,40704
2017-03-13T12:40:23.981Z,44864
2017-03-13T12:41:25.213Z,49376
2017-03-13T12:42:24.832Z,50976
2017-03-13T12:43:25.124Z,53344
2017-03-13T12:44:24.473Z,52544
2017-03-13T12:45:24.914Z,50688
2017-03-13T12:46:25.340Z,53536
2017-03-13T12:47:25.382Z,52160
2017-03-13T12:48:25.659Z,53728
2017-03-13T12:49:25.032Z,55584
2017-03-13T12:50:25.469Z,57504
2017-03-13T12:51:25.502Z,55008
2017-03-13T12:54:14.631Z,55104
2017-03-13T12:54:25.021Z,55936
2017-03-13T12:55:25.445Z,58400
2017-03-13T12:56:25.085Z,58752
2017-03-13T12:57:24.689Z,58048
2017-03-13T12:58:25.117Z,60288
2017-03-13T12:59:25.419Z,60448
2017-03-13T13:00:25.568Z,62368
2017-03-13T13:01:25.600Z,62176
2017-03-13T13:02:25.633Z,60608
2017-03-13T13:03:25.673Z,62176
2017-03-13T13:04:25.557Z,57344
2017-03-13T13:05:25.340Z,55232
2017-03-13T13:06:25.789Z,46272
2017-03-13T13:07:25.001Z,49536
2017-03-13T13:08:25.418Z,53952
2017-03-13T13:09:25.711Z,56800
2017-03-13T13:10:25.875Z,59072
2017-03-13T13:11:24.736Z,53568
2017-03-13T13:12:25.548Z,38272
2017-03-13T13:13:25.581Z,26240
2017-03-13T13:14:25.878Z,21312
2017-03-13T13:15:25.651Z,22112
2017-03-13T13:16:25.297Z,24960
2017-03-13T13:17:25.712Z,24288
2017-03-13T13:18:26.149Z,21824
2017-03-13T13:19:26.425Z,22240
2017-03-13T13:20:25.416Z,22784
2017-03-13T13:21:26.228Z,19360
2017-03-13T13:22:25.879Z,14024
2017-03-13T13:23:25.910Z,12560
2017-03-13T13:24:26.191Z,12092
2017-03-13T13:25:26.363Z,11684
2017-03-13T13:26:26.399Z,11212
2017-03-13T13:27:26.066Z,11128
2017-03-13T13:28:25.281Z,11048
2017-03-13T13:29:26.354Z,10772
2017-03-13T13:30:26.128Z,11248
2017-03-13T13:31:26.558Z,11232
2017-03-13T13:32:26.572Z,11160
2017-03-13T13:33:25.849Z,10856
2017-03-13T13:34:26.502Z,9984
2017-03-13T13:35:26.686Z,8936
2017-03-13T13:36:26.718Z,10392
2017-03-13T13:37:25.952Z,10248
2017-03-13T13:38:25.989Z,10232
2017-03-13T13:39:27.062Z,10188
2017-03-13T13:40:26.059Z,10044
2017-03-13T13:41:26.094Z,9844
2017-03-13T13:42:26.520Z,9508
2017-03-13T13:43:26.548Z,9392
2017-03-13T13:44:26.825Z,9492
2017-03-13T13:45:26.610Z,9456
2017-03-13T13:46:26.271Z,9248
2017-03-13T13:47:26.283Z,9048
2017-03-13T13:48:27.096Z,8960
2017-03-13T13:49:26.990Z,9084
2017-03-13T13:50:26.772Z,8848
2017-03-13T13:51:26.812Z,8480
2017-03-13T13:52:26.828Z,8320
2017-03-13T13:53:26.864Z,8204
2017-03-13T13:54:27.149Z,8052